createdAt,value
2018-08-19T00:00:12.127Z,0
2018-08-19T00:01:12.389Z,0
2018-08-19T00:02:12.106Z,0
2018-08-19T00:03:12.291Z,0
2018-08-19T00:04:11.550Z,0
2018-08-19T00:05:12.078Z,0
2018-08-19T00:06:12.062Z,0
2018-08-19T00:07:12.065Z,0
2018-08-19T00:08:12.297Z,0
2018-08-19T00:09:11.489Z,0
2018-08-19T00:10:12.012Z,0
2018-08-19T00:11:12.359Z,0
2018-08-19T00:12:11.730Z,0
2018-08-19T00:13:11.443Z,0
2018-08-19T00:14:11.966Z,0
2018-08-19T00:15:11.692Z,0
2018-08-19T00:16:11.937Z,0
2018-08-19T00:17:12.237Z,0
2018-08-19T00:18:12.178Z,0
2018-08-19T00:19:11.641Z,0
2018-08-19T00:20:12.156Z,0
2018-08-19T00:21:11.623Z,0
2018-08-19T00:22:11.611Z,0
2018-08-19T00:23:11.858Z,0
2018-08-19T00:24:11.849Z,0
2018-08-19T00:25:12.099Z,0
2018-08-19T00:26:11.819Z,0
2018-08-19T00:27:12.092Z,0
2018-08-19T00:28:12.060Z,0
2018-08-19T00:29:11.799Z,0
2018-08-19T00:30:12.039Z,0
2018-08-19T00:31:11.554Z,0
2018-08-19T00:32:11.762Z,0
2018-08-19T00:33:11.477Z,0
2018-08-19T00:34:11.732Z,0
2018-08-19T00:35:11.766Z,0
2018-08-19T00:36:11.701Z,0
2018-08-19T00:37:11.702Z,0
2018-08-19T00:38:11.675Z,0
2018-08-19T00:39:11.403Z,0
2018-08-19T00:40:11.661Z,0
2018-08-19T00:41:11.380Z,0
2018-08-19T00:42:11.656Z,0
2018-08-19T00:43:11.613Z,0
2018-08-19T00:44:11.621Z,0
2018-08-19T00:45:11.348Z,0
2018-08-19T00:46:11.577Z,0
2018-08-19T00:47:11.309Z,0
2018-08-19T00:48:12.028Z,0
2018-08-19T00:49:11.550Z,0
2018-08-19T00:50:11.535Z,0
2018-08-19T00:51:11.516Z,0
2018-08-19T00:52:11.510Z,0
2018-08-19T00:53:11.250Z,0
2018-08-19T00:54:11.222Z,0
2018-08-19T00:55:11.276Z,0
2018-08-19T00:56:11.228Z,0
2018-08-19T00:57:11.190Z,0
2018-08-19T00:58:11.168Z,0
2018-08-19T00:59:11.419Z,0
2018-08-19T01:00:11.431Z,0
2018-08-19T01:01:11.135Z,0
2018-08-19T01:02:11.393Z,0
2018-08-19T01:03:11.110Z,0
2018-08-19T01:04:11.369Z,0
2018-08-19T01:05:11.629Z,0
2018-08-19T01:06:11.080Z,0
2018-08-19T01:07:11.340Z,0
2018-08-19T01:08:11.582Z,0
2018-08-19T01:09:11.308Z,0
2018-08-19T01:10:11.037Z,0
2018-08-19T01:11:11.010Z,0
2018-08-19T01:12:11.547Z,0
2018-08-19T01:13:11.272Z,0
2018-08-19T01:14:10.974Z,0
2018-08-19T01:15:10.959Z,0
2018-08-19T01:16:11.220Z,0
2018-08-19T01:17:10.678Z,0
2018-08-19T01:18:10.660Z,0
2018-08-19T01:19:10.913Z,0
2018-08-19T01:20:11.175Z,0
2018-08-19T01:21:11.426Z,0
2018-08-19T01:22:11.147Z,0
2018-08-19T01:23:10.870Z,0
2018-08-19T01:24:10.860Z,0
2018-08-19T01:25:11.112Z,0
2018-08-19T01:26:10.838Z,0
2018-08-19T01:27:11.086Z,0
2018-08-19T01:28:11.080Z,0
2018-08-19T01:29:10.797Z,0
2018-08-19T01:30:10.790Z,0
2018-08-19T01:31:11.055Z,0
2018-08-19T01:32:11.284Z,0
2018-08-19T01:33:11.015Z,0
2018-08-19T01:34:10.994Z,0
2018-08-19T01:35:10.987Z,0
2018-08-19T01:36:10.974Z,0
2018-08-19T01:37:10.963Z,0
2018-08-19T01:38:10.684Z,0
2018-08-19T01:39:11.207Z,0
2018-08-19T01:40:10.930Z,0
2018-08-19T01:41:11.175Z,0
2018-08-19T01:42:10.369Z,0
2018-08-19T01:43:10.626Z,0
2018-08-19T01:44:10.606Z,0
2018-08-19T01:45:11.184Z,0
2018-08-19T01:46:10.587Z,0
2018-08-19T01:47:11.122Z,0
2018-08-19T01:48:10.562Z,0
2018-08-19T01:49:10.547Z,0
2018-08-19T01:50:10.799Z,0
2018-08-19T01:51:10.813Z,0
2018-08-19T01:52:11.041Z,0
2018-08-19T01:53:10.765Z,0
2018-08-19T01:54:11.038Z,0
2018-08-19T01:55:10.743Z,0
2018-08-19T01:56:10.741Z,0
2018-08-19T01:57:10.453Z,0
2018-08-19T01:58:10.981Z,0
2018-08-19T01:59:10.691Z,0
2018-08-19T02:00:10.673Z,0
2018-08-19T02:01:10.394Z,0
2018-08-19T02:02:10.915Z,0
2018-08-19T02:03:10.636Z,0
2018-08-19T02:04:10.630Z,0
2018-08-19T02:05:10.905Z,0
2018-08-19T02:06:10.343Z,0
2018-08-19T02:07:10.323Z,0
2018-08-19T02:08:10.316Z,0
2018-08-19T02:09:10.294Z,0
2018-08-19T02:10:10.284Z,0
2018-08-19T02:11:10.009Z,0
2018-08-19T02:12:10.523Z,0
2018-08-19T02:13:10.246Z,0
2018-08-19T02:14:10.497Z,0
2018-08-19T02:15:09.970Z,0
2018-08-19T02:16:10.215Z,0
2018-08-19T02:17:10.745Z,0
2018-08-19T02:18:10.191Z,0
2018-08-19T02:19:10.434Z,0
2018-08-19T02:20:10.421Z,0
2018-08-19T02:21:10.155Z,0
2018-08-19T02:22:10.398Z,0
2018-08-19T02:23:10.648Z,0
2018-08-19T02:24:10.105Z,0
2018-08-19T02:25:10.145Z,0
2018-08-19T02:26:10.352Z,0
2018-08-19T02:27:10.611Z,0
2018-08-19T02:28:09.795Z,0
2018-08-19T02:29:10.317Z,0
2018-08-19T02:30:10.041Z,0
2018-08-19T02:31:10.029Z,0
2018-08-19T02:32:10.013Z,0
2018-08-19T02:33:10.549Z,0
2018-08-19T02:34:09.995Z,0
2018-08-19T02:35:09.973Z,0
2018-08-19T02:36:10.228Z,0
2018-08-19T02:37:10.219Z,0
2018-08-19T02:38:10.209Z,0
2018-08-19T02:39:10.186Z,0
2018-08-19T02:40:10.174Z,0
2018-08-19T02:41:10.160Z,0
2018-08-19T02:42:09.890Z,0
2018-08-19T02:43:10.139Z,0
2018-08-19T02:44:10.120Z,0
2018-08-19T02:45:09.592Z,0
2018-08-19T02:46:10.109Z,0
2018-08-19T02:47:10.354Z,0
2018-08-19T02:48:10.540Z,0
2018-08-19T02:49:10.072Z,0
2018-08-19T02:50:10.062Z,0
2018-08-19T02:51:10.039Z,0
2018-08-19T02:52:10.019Z,0
2018-08-19T02:53:10.033Z,0
2018-08-19T02:54:10.012Z,0
2018-08-19T02:55:09.989Z,0
2018-08-19T02:56:09.721Z,0
2018-08-19T02:57:10.164Z,0
2018-08-19T02:58:09.943Z,0
2018-08-19T02:59:09.674Z,0
2018-08-19T03:00:09.673Z,0
2018-08-19T03:01:09.944Z,0
2018-08-19T03:02:09.367Z,0
2018-08-19T03:03:09.641Z,0
2018-08-19T03:04:09.618Z,0
2018-08-19T03:05:09.602Z,0
2018-08-19T03:06:09.842Z,0
2018-08-19T03:07:09.566Z,0
2018-08-19T03:08:09.562Z,0
2018-08-19T03:09:10.094Z,0
2018-08-19T03:10:09.534Z,0
2018-08-19T03:11:09.530Z,0
2018-08-19T03:12:09.501Z,0
2018-08-19T03:13:09.817Z,0
2018-08-19T03:14:09.741Z,0
2018-08-19T03:15:10.034Z,0
2018-08-19T03:16:09.189Z,0
2018-08-19T03:17:09.713Z,0
2018-08-19T03:18:09.689Z,0
2018-08-19T03:19:09.678Z,0
2018-08-19T03:20:09.665Z,0
2018-08-19T03:21:09.668Z,0
2018-08-19T03:22:09.912Z,0
2018-08-19T03:23:09.909Z,0
2018-08-19T03:24:09.625Z,0
2018-08-19T03:25:09.338Z,0
2018-08-19T03:26:09.338Z,0
2018-08-19T03:27:09.315Z,0
2018-08-19T03:28:09.564Z,0
2018-08-19T03:29:09.820Z,0
2018-08-19T03:30:09.837Z,0
2018-08-19T03:31:09.535Z,0
2018-08-19T03:32:09.790Z,0
2018-08-19T03:33:09.773Z,0
2018-08-19T03:34:09.224Z,0
2018-08-19T03:35:09.487Z,0
2018-08-19T03:36:09.203Z,0
2018-08-19T03:37:09.713Z,0
2018-08-19T03:38:09.824Z,0
2018-08-19T03:39:09.194Z,0
2018-08-19T03:40:09.695Z,0
2018-08-19T03:41:09.407Z,0
2018-08-19T03:42:09.126Z,0
2018-08-19T03:43:09.371Z,0
2018-08-19T03:44:09.366Z,0
2018-08-19T03:45:08.821Z,0
2018-08-19T03:46:09.068Z,0
2018-08-19T03:47:08.792Z,0
2018-08-19T03:48:09.573Z,0
2018-08-19T03:49:09.033Z,0
2018-08-19T03:50:08.755Z,0
2018-08-19T03:51:09.531Z,0
2018-08-19T03:52:09.257Z,0
2018-08-19T03:53:09.250Z,4
2018-08-19T03:54:08.971Z,4
2018-08-19T03:55:09.239Z,4
2018-08-19T03:56:08.680Z,0
2018-08-19T03:57:08.933Z,4
2018-08-19T03:58:09.485Z,4
2018-08-19T03:59:09.174Z,8
2018-08-19T04:00:08.619Z,4
2018-08-19T04:01:09.146Z,8
2018-08-19T04:02:09.131Z,8
2018-08-19T04:03:08.868Z,8
2018-08-19T04:04:08.834Z,12
2018-08-19T04:05:09.349Z,16
2018-08-19T04:06:08.810Z,16
2018-08-19T04:07:09.066Z,20
2018-08-19T04:08:09.050Z,20
2018-08-19T04:09:08.774Z,24
2018-08-19T04:10:09.025Z,28
2018-08-19T04:11:08.743Z,32
2018-08-19T04:12:08.731Z,36
2018-08-19T04:13:08.714Z,40
2018-08-19T04:14:08.706Z,44
2018-08-19T04:15:09.232Z,52
2018-08-19T04:16:08.953Z,56
2018-08-19T04:17:08.975Z,60
2018-08-19T04:18:08.655Z,68
2018-08-19T04:19:08.904Z,76
2018-08-19T04:20:08.894Z,84
2018-08-19T04:21:08.349Z,92
2018-08-19T04:22:08.607Z,104
2018-08-19T04:23:09.138Z,116
2018-08-19T04:24:08.321Z,124
2018-08-19T04:25:08.562Z,136
2018-08-19T04:26:09.079Z,148
2018-08-19T04:27:08.804Z,160
2018-08-19T04:28:08.519Z,176
2018-08-19T04:29:08.829Z,192
2018-08-19T04:30:08.768Z,208
2018-08-19T04:31:08.747Z,224
2018-08-19T04:32:08.476Z,240
2018-08-19T04:33:08.474Z,260
2018-08-19T04:34:08.979Z,276
2018-08-19T04:35:08.443Z,296
2018-08-19T04:36:08.982Z,316
2018-08-19T04:37:08.142Z,336
2018-08-19T04:38:08.386Z,352
2018-08-19T04:39:08.116Z,376
2018-08-19T04:40:08.364Z,396
2018-08-19T04:41:08.349Z,416
2018-08-19T04:42:08.404Z,436
2018-08-19T04:43:08.071Z,460
2018-08-19T04:44:08.852Z,480
2018-08-19T04:45:08.034Z,500
2018-08-19T04:46:08.550Z,520
2018-08-19T04:47:08.539Z,544
2018-08-19T04:48:08.765Z,568
2018-08-19T04:49:08.526Z,584
2018-08-19T04:50:08.244Z,608
2018-08-19T04:51:08.498Z,628
2018-08-19T04:52:08.470Z,652
2018-08-19T04:53:08.232Z,672
2018-08-19T04:54:08.728Z,696
2018-08-19T04:55:08.722Z,712
2018-08-19T04:56:08.429Z,736
2018-08-19T04:57:08.153Z,756
2018-08-19T04:58:08.133Z,776
2018-08-19T04:59:08.678Z,796
2018-08-19T05:00:08.379Z,816
2018-08-19T05:01:08.366Z,836
2018-08-19T05:02:09.058Z,856
2018-08-19T05:03:08.601Z,876
2018-08-19T05:04:08.593Z,896
2018-08-19T05:05:08.047Z,916
2018-08-19T05:06:08.035Z,936
2018-08-19T05:07:08.547Z,956
2018-08-19T05:08:08.789Z,972
2018-08-19T05:09:08.515Z,992
2018-08-19T05:10:08.512Z,1012
2018-08-19T05:11:08.489Z,1028
2018-08-19T05:12:08.215Z,1048
2018-08-19T05:13:08.195Z,1068
2018-08-19T05:14:07.936Z,1084
2018-08-19T05:15:08.190Z,1104
2018-08-19T05:16:08.168Z,1128
2018-08-19T05:17:08.152Z,1148
2018-08-19T05:18:08.407Z,1168
2018-08-19T05:19:07.868Z,1188
2018-08-19T05:20:08.107Z,1208
2018-08-19T05:21:08.109Z,1228
2018-08-19T05:22:07.836Z,1248
2018-08-19T05:23:08.342Z,1268
2018-08-19T05:24:08.076Z,1288
2018-08-19T05:25:08.056Z,1304
2018-08-19T05:26:07.768Z,1328
2018-08-19T05:27:08.036Z,1352
2018-08-19T05:28:08.020Z,1372
2018-08-19T05:29:08.014Z,1400
2018-08-19T05:30:07.986Z,1424
2018-08-19T05:31:07.969Z,1452
2018-08-19T05:32:07.962Z,1480
2018-08-19T05:33:07.949Z,1504
2018-08-19T05:34:08.199Z,1524
2018-08-19T05:35:07.390Z,1540
2018-08-19T05:36:07.927Z,1564
2018-08-19T05:37:07.909Z,1584
2018-08-19T05:38:08.169Z,1600
2018-08-19T05:39:08.144Z,1620
2018-08-19T05:40:08.123Z,1636
2018-08-19T05:41:08.116Z,1656
2018-08-19T05:42:07.833Z,1676
2018-08-19T05:43:07.822Z,1692
2018-08-19T05:44:07.803Z,1708
2018-08-19T05:45:07.542Z,1720
2018-08-19T05:46:07.266Z,1736
2018-08-19T05:47:08.001Z,1752
2018-08-19T05:48:07.769Z,1768
2018-08-19T05:49:07.482Z,1788
2018-08-19T05:50:07.735Z,1804
2018-08-19T05:51:07.206Z,1820
2018-08-19T05:52:07.722Z,1840
2018-08-19T05:53:07.964Z,1860
2018-08-19T05:54:07.953Z,1888
2018-08-19T05:55:07.993Z,1908
2018-08-19T05:56:07.670Z,1924
2018-08-19T05:57:07.382Z,1948
2018-08-19T05:58:07.639Z,1964
2018-08-19T05:59:07.898Z,1988
2018-08-19T06:00:07.623Z,2008
2018-08-19T06:01:07.495Z,2024
2018-08-19T06:02:07.588Z,2044
2018-08-19T06:03:07.580Z,2060
2018-08-19T06:04:07.346Z,2080
2018-08-19T06:05:07.568Z,2092
2018-08-19T06:06:07.277Z,2100
2018-08-19T06:07:07.286Z,2108
2018-08-19T06:08:07.545Z,2112
2018-08-19T06:09:07.511Z,2124
2018-08-19T06:10:07.769Z,2136
2018-08-19T06:11:07.747Z,2144
2018-08-19T06:12:07.204Z,2152
2018-08-19T06:13:07.462Z,2160
2018-08-19T06:14:07.465Z,2180
2018-08-19T06:15:07.173Z,2192
2018-08-19T06:16:07.161Z,2204
2018-08-19T06:17:07.680Z,2216
2018-08-19T06:18:07.662Z,2232
2018-08-19T06:19:07.380Z,2248
2018-08-19T06:20:07.635Z,2260
2018-08-19T06:21:07.363Z,2272
2018-08-19T06:22:07.263Z,2288
2018-08-19T06:23:07.077Z,2308
2018-08-19T06:24:07.077Z,2324
2018-08-19T06:25:07.601Z,2340
2018-08-19T06:26:07.583Z,2364
2018-08-19T06:27:07.292Z,2388
2018-08-19T06:28:07.541Z,2412
2018-08-19T06:29:07.280Z,2440
2018-08-19T06:30:07.260Z,2464
2018-08-19T06:31:07.388Z,2484
2018-08-19T06:32:07.237Z,2504
2018-08-19T06:33:07.225Z,2528
2018-08-19T06:34:06.953Z,2548
2018-08-19T06:35:07.386Z,2568
2018-08-19T06:36:06.928Z,2588
2018-08-19T06:37:07.471Z,2608
2018-08-19T06:38:07.230Z,2636
2018-08-19T06:39:07.416Z,2664
2018-08-19T06:40:06.883Z,2696
2018-08-19T06:41:07.161Z,2724
2018-08-19T06:42:07.118Z,2768
2018-08-19T06:43:07.261Z,2812
2018-08-19T06:44:06.568Z,2832
2018-08-19T06:45:06.818Z,2848
2018-08-19T06:46:07.072Z,2856
2018-08-19T06:47:06.799Z,2844
2018-08-19T06:48:07.261Z,2856
2018-08-19T06:49:07.033Z,2876
2018-08-19T06:50:07.294Z,2888
2018-08-19T06:51:07.374Z,2908
2018-08-19T06:52:06.526Z,2920
2018-08-19T06:53:07.293Z,2928
2018-08-19T06:54:06.982Z,2928
2018-08-19T06:55:06.700Z,2936
2018-08-19T06:56:06.696Z,2968
2018-08-19T06:57:06.681Z,2992
2018-08-19T06:58:06.935Z,3016
2018-08-19T06:59:06.928Z,3024
2018-08-19T07:00:06.644Z,3040
2018-08-19T07:01:06.377Z,3052
2018-08-19T07:02:07.156Z,3060
2018-08-19T07:03:07.176Z,3080
2018-08-19T07:04:07.232Z,3108
2018-08-19T07:05:06.861Z,3144
2018-08-19T07:06:06.848Z,3180
2018-08-19T07:07:06.623Z,3212
2018-08-19T07:08:06.311Z,3236
2018-08-19T07:09:07.081Z,3256
2018-08-19T07:10:06.534Z,3256
2018-08-19T07:11:06.538Z,3264
2018-08-19T07:12:06.783Z,3268
2018-08-19T07:13:06.512Z,3296
2018-08-19T07:14:06.768Z,3348
2018-08-19T07:15:06.478Z,3388
2018-08-19T07:16:06.732Z,3436
2018-08-19T07:17:06.988Z,3432
2018-08-19T07:18:06.717Z,3416
2018-08-19T07:19:06.179Z,3392
2018-08-19T07:20:06.165Z,3368
2018-08-19T07:21:06.201Z,3396
2018-08-19T07:22:06.667Z,3400
2018-08-19T07:23:06.664Z,3404
2018-08-19T07:24:06.119Z,3420
2018-08-19T07:25:06.116Z,3376
2018-08-19T07:26:06.676Z,3388
2018-08-19T07:27:06.614Z,3412
2018-08-19T07:28:06.356Z,3420
2018-08-19T07:29:06.595Z,3440
2018-08-19T07:30:06.594Z,3428
2018-08-19T07:31:06.585Z,3508
2018-08-19T07:32:06.041Z,3520
2018-08-19T07:33:06.550Z,3544
2018-08-19T07:34:06.278Z,3572
2018-08-19T07:35:06.538Z,3544
2018-08-19T07:36:06.261Z,3532
2018-08-19T07:37:06.883Z,3544
2018-08-19T07:38:06.527Z,3572
2018-08-19T07:39:06.491Z,3612
2018-08-19T07:40:06.476Z,3628
2018-08-19T07:41:06.474Z,3616
2018-08-19T07:42:06.464Z,3612
2018-08-19T07:43:06.195Z,3584
2018-08-19T07:44:05.910Z,3608
2018-08-19T07:45:06.428Z,3632
2018-08-19T07:46:06.149Z,3636
2018-08-19T07:47:06.145Z,3672
2018-08-19T07:48:06.396Z,3704
2018-08-19T07:49:06.387Z,3756
2018-08-19T07:50:06.387Z,3780
2018-08-19T07:51:06.368Z,3952
2018-08-19T07:52:06.625Z,3924
2018-08-19T07:53:06.343Z,3812
2018-08-19T07:54:06.340Z,3816
2018-08-19T07:55:06.326Z,3828
2018-08-19T07:56:06.052Z,3876
2018-08-19T07:57:06.322Z,3900
2018-08-19T07:58:05.760Z,3896
2018-08-19T07:59:06.023Z,3900
2018-08-19T08:00:06.273Z,3924
2018-08-19T08:01:06.003Z,3944
2018-08-19T08:02:06.262Z,3976
2018-08-19T08:03:06.248Z,3996
2018-08-19T08:04:05.969Z,4064
2018-08-19T08:05:06.485Z,4164
2018-08-19T08:06:06.224Z,4188
2018-08-19T08:07:05.942Z,4188
2018-08-19T08:08:06.191Z,4204
2018-08-19T08:09:06.447Z,4356
2018-08-19T08:10:06.185Z,4256
2018-08-19T08:11:06.830Z,4280
2018-08-19T08:12:06.153Z,4364
2018-08-19T08:13:05.945Z,4396
2018-08-19T08:14:05.876Z,4476
2018-08-19T08:15:05.858Z,4480
2018-08-19T08:16:06.114Z,6264
2018-08-19T08:17:05.583Z,6512
2018-08-19T08:18:06.094Z,6132
2018-08-19T08:19:06.446Z,5992
2018-08-19T08:20:06.088Z,6516
2018-08-19T08:21:06.131Z,5264
2018-08-19T08:22:06.531Z,5208
2018-08-19T08:23:06.049Z,5216
2018-08-19T08:24:06.041Z,5252
2018-08-19T08:25:06.290Z,5568
2018-08-19T08:26:06.026Z,11032
2018-08-19T08:27:06.274Z,5708
2018-08-19T08:28:06.005Z,6332
2018-08-19T08:29:05.526Z,7640
2018-08-19T08:30:06.306Z,6148
2018-08-19T08:31:05.967Z,6004
2018-08-19T08:32:05.957Z,6168
2018-08-19T08:33:06.247Z,5764
2018-08-19T08:34:05.942Z,7412
2018-08-19T08:35:05.407Z,7616
2018-08-19T08:36:05.661Z,8772
2018-08-19T08:37:06.393Z,10072
2018-08-19T08:38:05.902Z,9896
2018-08-19T08:39:05.646Z,8744
2018-08-19T08:40:05.925Z,9484
2018-08-19T08:41:05.638Z,9408
2018-08-19T08:42:05.887Z,7940
2018-08-19T08:43:06.132Z,11272
2018-08-19T08:44:06.113Z,10664
2018-08-19T08:45:05.582Z,18848
2018-08-19T08:46:06.117Z,7448
2018-08-19T08:47:05.821Z,8508
2018-08-19T08:48:06.769Z,9452
2018-08-19T08:49:05.805Z,7984
2018-08-19T08:50:05.808Z,8160
2018-08-19T08:51:05.530Z,9488
2018-08-19T08:52:05.517Z,8772
2018-08-19T08:53:05.786Z,9412
2018-08-19T08:54:05.765Z,10916
2018-08-19T08:55:05.488Z,10368
2018-08-19T08:56:05.743Z,10164
2018-08-19T08:57:06.014Z,9704
2018-08-19T08:58:05.201Z,9156
2018-08-19T08:59:05.718Z,9668
2018-08-19T09:00:05.739Z,10104
2018-08-19T09:01:05.698Z,10376
2018-08-19T09:02:05.701Z,9692
2018-08-19T09:03:05.194Z,10120
2018-08-19T09:04:05.945Z,9984
2018-08-19T09:05:05.680Z,9800
2018-08-19T09:06:05.675Z,10188
2018-08-19T09:07:05.391Z,10924
2018-08-19T09:08:05.650Z,10412
2018-08-19T09:09:05.641Z,9228
2018-08-19T09:10:05.625Z,9356
2018-08-19T09:11:05.629Z,10000
2018-08-19T09:12:05.353Z,9404
2018-08-19T09:13:05.883Z,9820
2018-08-19T09:14:05.704Z,10384
2018-08-19T09:15:05.596Z,10440
2018-08-19T09:16:05.580Z,9568
2018-08-19T09:17:05.587Z,10876
2018-08-19T09:18:05.897Z,11372
2018-08-19T09:19:05.563Z,10300
2018-08-19T09:20:05.299Z,8684
2018-08-19T09:21:05.810Z,9660
2018-08-19T09:22:05.272Z,10428
2018-08-19T09:23:05.801Z,13380
2018-08-19T09:24:05.526Z,15976
2018-08-19T09:25:05.251Z,15216
2018-08-19T09:26:05.763Z,17856
2018-08-19T09:27:05.506Z,16704
2018-08-19T09:28:05.491Z,15328
2018-08-19T09:29:05.487Z,15056
2018-08-19T09:30:05.750Z,13392
2018-08-19T09:31:04.937Z,12136
2018-08-19T09:32:04.932Z,13192
2018-08-19T09:33:05.271Z,13432
2018-08-19T09:34:05.456Z,12396
2018-08-19T09:35:05.169Z,12516
2018-08-19T09:36:04.898Z,12904
2018-08-19T09:37:05.157Z,12956
2018-08-19T09:38:05.151Z,13288
2018-08-19T09:39:05.207Z,12444
2018-08-19T09:40:05.143Z,13128
2018-08-19T09:41:05.126Z,11616
2018-08-19T09:42:05.122Z,10552
2018-08-19T09:43:05.111Z,10072
2018-08-19T09:44:05.115Z,10356
2018-08-19T09:45:05.358Z,9752
2018-08-19T09:46:05.126Z,9872
2018-08-19T09:47:05.359Z,9324
2018-08-19T09:48:06.095Z,9660
2018-08-19T09:49:05.070Z,9832
2018-08-19T09:50:05.323Z,9892
2018-08-19T09:51:05.584Z,10428
2018-08-19T09:52:05.319Z,10524
2018-08-19T09:53:05.572Z,9784
2018-08-19T09:54:05.059Z,9724
2018-08-19T09:55:05.569Z,9664
2018-08-19T09:56:05.556Z,9732
2018-08-19T09:57:04.741Z,11840
2018-08-19T09:58:04.737Z,11060
2018-08-19T09:59:05.355Z,14876
2018-08-19T10:00:05.290Z,15192
2018-08-19T10:01:05.531Z,14824
2018-08-19T10:02:05.244Z,12988
2018-08-19T10:03:05.240Z,10208
2018-08-19T10:04:04.698Z,7784
2018-08-19T10:05:05.249Z,8104
2018-08-19T10:06:04.955Z,9864
2018-08-19T10:07:05.210Z,9712
2018-08-19T10:08:05.209Z,9996
2018-08-19T10:09:05.194Z,9688
2018-08-19T10:10:05.194Z,9484
2018-08-19T10:11:04.905Z,11448
2018-08-19T10:12:04.906Z,11080
2018-08-19T10:13:05.178Z,10704
2018-08-19T10:14:05.441Z,9524
2018-08-19T10:15:04.894Z,9248
2018-08-19T10:16:05.139Z,9268
2018-08-19T10:17:05.476Z,8588
2018-08-19T10:18:05.437Z,9856
2018-08-19T10:19:04.586Z,9688
2018-08-19T10:20:05.135Z,8996
2018-08-19T10:21:05.095Z,9716
2018-08-19T10:22:05.098Z,9256
2018-08-19T10:23:05.346Z,10024
2018-08-19T10:24:04.820Z,10104
2018-08-19T10:25:05.354Z,9936
2018-08-19T10:26:05.365Z,10956
2018-08-19T10:27:05.083Z,10720
2018-08-19T10:28:04.794Z,15884
2018-08-19T10:29:04.512Z,13372
2018-08-19T10:30:04.777Z,10384
2018-08-19T10:31:05.095Z,10032
2018-08-19T10:32:05.042Z,37216
2018-08-19T10:33:04.759Z,12792
2018-08-19T10:34:05.011Z,17792
2018-08-19T10:35:04.736Z,52512
2018-08-19T10:36:04.797Z,36704
2018-08-19T10:37:04.994Z,52512
2018-08-19T10:38:05.242Z,54048
2018-08-19T10:39:04.994Z,79584
2018-08-19T10:40:04.969Z,58688
2018-08-19T10:41:04.695Z,13740
2018-08-19T10:42:05.095Z,13024
2018-08-19T10:43:05.244Z,17480
2018-08-19T10:44:04.417Z,16224
2018-08-19T10:45:04.679Z,31104
2018-08-19T10:46:04.946Z,56096
2018-08-19T10:47:04.396Z,70880
2018-08-19T10:48:04.661Z,74368
2018-08-19T10:49:04.923Z,73600
2018-08-19T10:50:04.648Z,71360
2018-08-19T10:51:04.938Z,66368
2018-08-19T10:52:04.929Z,68288
2018-08-19T10:53:05.210Z,67872
2018-08-19T10:54:05.162Z,66528
2018-08-19T10:55:04.899Z,64992
2018-08-19T10:56:04.894Z,65152
2018-08-19T10:57:04.355Z,64192
2018-08-19T10:58:04.917Z,64416
2018-08-19T10:59:04.881Z,55744
2018-08-19T11:00:04.975Z,71008
2018-08-19T11:01:04.887Z,64288
2018-08-19T11:02:04.891Z,45760
2018-08-19T11:03:04.891Z,79328
2018-08-19T11:04:04.342Z,86592
2018-08-19T11:05:04.616Z,21024
2018-08-19T11:06:04.620Z,79072
2018-08-19T11:07:04.606Z,72000
2018-08-19T11:08:05.134Z,65728
2018-08-19T11:09:04.616Z,62368
2018-08-19T11:10:04.346Z,53408
2018-08-19T11:11:04.609Z,41728
2018-08-19T11:12:04.608Z,80256
2018-08-19T11:13:04.613Z,72768
2018-08-19T11:14:04.930Z,64832
2018-08-19T11:15:04.609Z,82496
2018-08-19T11:16:04.351Z,82304
2018-08-19T11:17:04.621Z,81440
2018-08-19T11:18:05.147Z,87392
2018-08-19T11:19:04.620Z,78912
2018-08-19T11:20:04.895Z,76544
2018-08-19T11:21:05.465Z,72640
2018-08-19T11:22:05.147Z,72480
2018-08-19T11:23:04.883Z,73056
2018-08-19T11:24:05.157Z,76320
2018-08-19T11:25:04.887Z,76416
2018-08-19T11:26:04.635Z,74240
2018-08-19T11:27:04.641Z,74240
2018-08-19T11:28:04.642Z,75008
2018-08-19T11:29:04.905Z,75584
2018-08-19T11:30:05.217Z,75264
2018-08-19T11:31:04.905Z,78144
2018-08-19T11:32:04.925Z,80800
2018-08-19T11:33:04.404Z,81024
2018-08-19T11:34:04.948Z,79680
2018-08-19T11:35:05.213Z,78080
2018-08-19T11:36:04.671Z,78624
2018-08-19T11:37:04.406Z,74240
2018-08-19T11:38:04.986Z,71520
2018-08-19T11:39:05.208Z,66656
2018-08-19T11:40:04.955Z,66880
2018-08-19T11:41:04.956Z,68320
2018-08-19T11:42:04.697Z,71072
2018-08-19T11:43:04.435Z,75232
2018-08-19T11:44:04.432Z,82272
2018-08-19T11:45:04.995Z,84896
2018-08-19T11:46:04.984Z,87232
2018-08-19T11:47:04.984Z,89376
2018-08-19T11:48:04.748Z,91552
2018-08-19T11:49:04.724Z,92416
2018-08-19T11:50:04.987Z,91168
2018-08-19T11:51:04.999Z,92352
2018-08-19T11:52:05.005Z,91296
2018-08-19T11:53:05.047Z,88672
2018-08-19T11:54:05.272Z,84704
2018-08-19T11:55:04.810Z,81376
2018-08-19T11:56:05.314Z,77120
2018-08-19T11:57:05.314Z,73216
2018-08-19T11:58:04.788Z,75936
2018-08-19T11:59:04.773Z,82784
2018-08-19T12:00:05.050Z,78368
2018-08-19T12:01:04.966Z,82848
2018-08-19T12:02:05.551Z,81696
2018-08-19T12:03:04.789Z,76384
2018-08-19T12:04:05.072Z,74176
2018-08-19T12:05:05.140Z,75904
2018-08-19T12:06:05.095Z,76192
2018-08-19T12:07:05.079Z,75776
2018-08-19T12:08:04.824Z,74528
2018-08-19T12:09:05.093Z,74656
2018-08-19T12:10:04.858Z,70688
2018-08-19T12:11:04.830Z,71584
2018-08-19T12:12:04.854Z,71712
2018-08-19T12:13:05.105Z,74752
2018-08-19T12:14:05.386Z,72544
2018-08-19T12:15:04.851Z,73376
2018-08-19T12:16:05.123Z,74400
2018-08-19T12:17:05.319Z,75040
2018-08-19T12:18:05.134Z,76672
2018-08-19T12:19:05.134Z,76256
2018-08-19T12:20:04.924Z,78944
2018-08-19T12:21:05.144Z,81024
2018-08-19T12:22:05.156Z,79968
2018-08-19T12:23:04.884Z,80064
2018-08-19T12:24:05.158Z,81088
2018-08-19T12:25:05.424Z,84640
2018-08-19T12:26:05.428Z,79680
2018-08-19T12:27:05.180Z,73472
2018-08-19T12:28:05.437Z,69248
2018-08-19T12:29:04.663Z,69088
2018-08-19T12:30:04.921Z,69920
2018-08-19T12:31:05.199Z,71008
2018-08-19T12:32:05.231Z,71392
2018-08-19T12:33:04.950Z,73472
2018-08-19T12:34:05.208Z,72320
2018-08-19T12:35:04.956Z,68960
2018-08-19T12:36:04.958Z,66976
2018-08-19T12:37:05.339Z,65984
2018-08-19T12:38:04.968Z,67808
2018-08-19T12:39:04.973Z,72800
2018-08-19T12:40:05.237Z,77120
2018-08-19T12:41:04.988Z,76448
2018-08-19T12:42:05.248Z,71584
2018-08-19T12:43:04.995Z,65152
2018-08-19T12:44:05.519Z,65024
2018-08-19T12:45:04.735Z,63616
2018-08-19T12:46:05.261Z,65120
2018-08-19T12:47:05.007Z,69184
2018-08-19T12:48:05.270Z,72320
2018-08-19T12:49:05.228Z,75264
2018-08-19T12:50:05.348Z,78784
2018-08-19T12:51:04.762Z,77472
2018-08-19T12:52:05.031Z,76896
2018-08-19T12:53:04.765Z,76128
2018-08-19T12:54:05.305Z,73312
2018-08-19T12:55:05.594Z,71360
2018-08-19T12:56:05.245Z,68960
2018-08-19T12:57:05.326Z,68448
2018-08-19T12:58:05.599Z,69504
2018-08-19T12:59:05.607Z,73568
2018-08-19T13:00:04.811Z,77792
2018-08-19T13:01:05.606Z,79776
2018-08-19T13:02:05.079Z,80576
2018-08-19T13:03:05.353Z,77568
2018-08-19T13:04:05.617Z,72960
2018-08-19T13:05:05.357Z,71328
2018-08-19T13:06:05.639Z,71904
2018-08-19T13:07:05.106Z,72864
2018-08-19T13:08:05.542Z,75168
2018-08-19T13:09:05.113Z,79712
2018-08-19T13:10:05.386Z,84160
2018-08-19T13:11:05.394Z,87328
2018-08-19T13:12:05.391Z,87424
2018-08-19T13:13:05.461Z,86912
2018-08-19T13:14:05.150Z,84192
2018-08-19T13:15:05.145Z,82816
2018-08-19T13:16:05.148Z,81568
2018-08-19T13:17:05.418Z,79840
2018-08-19T13:18:05.436Z,80000
2018-08-19T13:19:05.425Z,77984
2018-08-19T13:20:05.447Z,79296
2018-08-19T13:21:05.172Z,80960
2018-08-19T13:22:05.175Z,80128
2018-08-19T13:23:05.279Z,77696
2018-08-19T13:24:05.460Z,76768
2018-08-19T13:25:05.459Z,78112
2018-08-19T13:26:05.207Z,80064
2018-08-19T13:27:05.729Z,80640
2018-08-19T13:28:05.216Z,84480
2018-08-19T13:29:05.208Z,84768
2018-08-19T13:30:05.215Z,83072
2018-08-19T13:31:05.748Z,80352
2018-08-19T13:32:05.225Z,75232
2018-08-19T13:33:04.968Z,68448
2018-08-19T13:34:05.505Z,63520
2018-08-19T13:35:05.766Z,62752
2018-08-19T13:36:05.765Z,65120
2018-08-19T13:37:04.977Z,68640